Time;durP1;ratioP1;P1;durP2;ratioP2;P2;SDS_P1;SDS_P2;PMS_P1;PMS_P2;Temp;Humidity;BMP_temperature;BMP_pressure;BME280_temperature;BME280_humidity;BME280_pressure;Samples;Min_cycle;Max_cycle;Signal;HPM_P1;HPM_P2
2023/11/22 03:00:46;;;;;;;3.33;2.40;;;6.40;99.90;;;;;;4127587;26;20122;-83
2023/11/22 03:08:27;;;;;;;3.67;2.33;;;6.40;99.90;;;;;;5213569;23;20050;-84
2023/11/22 03:31:38;;;;;;;4.03;2.40;;;6.10;99.90;;;;;;4893082;23;20311;-82
2023/11/22 03:34:10;;;;;;;4.13;2.28;;;6.30;99.90;;;;;;5028981;28;20018;-79
2023/11/22 03:36:41;;;;;;;4.97;2.20;;;6.00;99.90;;;;;;5024287;28;20022;-81
2023/11/22 03:39:14;;;;;;;3.33;2.05;;;;;;;;;;5031941;28;20062;-83
2023/11/22 03:41:47;;;;;;;5.05;2.25;;;6.00;99.90;;;;;;5028012;28;20031;-84
2023/11/22 03:44:39;;;;;;;3.95;2.30;;;6.00;99.90;;;;;;5015401;28;20030;-82
2023/11/22 03:47:13;;;;;;;4.07;2.20;;;6.00;99.90;;;;;;5016386;28;20034;-81
2023/11/22 03:49:40;;;;;;;4.05;2.20;;;6.00;99.90;;;;;;5423255;23;20053;-83
2023/11/22 03:52:08;;;;;;;4.22;2.35;;;5.90;99.90;;;;;;5005868;28;20037;-81
2023/11/22 03:54:35;;;;;;;5.78;2.45;;;;;;;;;;4981847;28;20030;-82
2023/11/22 03:57:03;;;;;;;3.80;2.28;;;3.90;99.90;;;;;;5014901;28;20014;-82
2023/11/22 03:59:32;;;;;;;3.85;2.13;;;5.80;99.90;;;;;;5009592;28;20121;-82
2023/11/22 04:02:00;;;;;;;4.60;2.70;;;5.80;99.90;;;;;;5016453;28;20045;-81
2023/11/22 04:04:30;;;;;;;4.05;2.33;;;5.30;99.90;;;;;;5009583;28;20022;-82
2023/11/22 04:06:58;;;;;;;4.35;2.50;;;5.80;99.90;;;;;;5022895;28;20034;-82
2023/11/22 04:09:25;;;;;;;4.43;2.63;;;;;;;;;;5015729;28;20029;-82
2023/11/22 04:11:51;;;;;;;6.05;2.80;;;;;;;;;;5031020;28;20055;-81
2023/11/22 04:14:21;;;;;;;4.63;2.47;;;5.70;99.90;;;;;;5014569;28;20022;-83
2023/11/22 04:16:54;;;;;;;4.18;2.30;;;7.60;99.90;;;;;;5029874;28;20049;-82
2023/11/22 04:19:21;;;;;;;5.18;3.00;;;;;;;;;;5024748;28;20036;-83
2023/11/22 04:21:49;;;;;;;4.43;2.80;;;5.60;99.90;;;;;;5015704;28;20039;-82
2023/11/22 04:24:18;;;;;;;4.30;2.40;;;6.60;99.90;;;;;;5005746;28;20033;-80
2023/11/22 04:26:48;;;;;;;3.40;2.10;;;5.50;99.90;;;;;;5020678;28;20038;-85
2023/11/22 04:29:20;;;;;;;5.35;2.60;;;5.50;99.90;;;;;;5007644;28;20563;-81
2023/11/22 04:31:51;;;;;;;5.00;2.40;;;7.50;99.90;;;;;;5013520;28;20053;-83
2023/11/22 04:34:20;;;;;;;7.47;2.63;;;5.50;99.90;;;;;;4993214;28;20043;-82
2023/11/22 04:37:08;;;;;;;4.90;2.60;;;5.50;99.90;;;;;;5021858;28;20484;-82
2023/11/22 04:39:44;;;;;;;4.13;2.47;;;5.50;99.90;;;;;;4992726;28;20106;-82
2023/11/22 04:42:15;;;;;;;4.90;3.13;;;5.40;99.90;;;;;;5044624;23;20097;-83
2023/11/22 04:44:46;;;;;;;8.70;2.70;;;5.50;99.90;;;;;;5012960;28;20050;-82
2023/11/22 04:47:14;;;;;;;5.18;2.45;;;2.30;99.90;;;;;;5017747;28;20113;-82
2023/11/22 04:49:41;;;;;;;6.70;2.67;;;;;;;;;;5020857;28;20431;-82
2023/11/22 04:52:10;;;;;;;7.82;2.63;;;5.40;99.90;;;;;;5002916;28;20034;-82
2023/11/22 04:54:43;;;;;;;4.18;2.58;;;5.40;99.90;;;;;;5001446;28;20575;-81
2023/11/22 04:57:10;;;;;;;4.57;2.60;;;;;;;;;;4998640;28;20022;-81
2023/11/22 04:59:38;;;;;;;3.97;2.83;;;;;;;;;;4991790;28;20029;-81
2023/11/22 05:02:07;;;;;;;3.22;2.30;;;5.30;99.90;;;;;;5006371;28;20022;-82
2023/11/22 05:04:38;;;;;;;3.95;2.38;;;5.30;99.90;;;;;;4994811;28;20090;-82
2023/11/22 05:07:05;;;;;;;3.75;2.33;;;5.30;99.90;;;;;;4999382;28;20369;-82
2023/11/22 05:09:34;;;;;;;4.55;2.55;;;5.30;99.90;;;;;;4998082;28;20035;-84
2023/11/22 05:12:03;;;;;;;5.70;2.67;;;5.30;99.90;;;;;;4998519;28;20041;-82
2023/11/22 05:14:33;;;;;;;6.05;3.42;;;5.30;99.90;;;;;;4987704;28;20408;-82
2023/11/22 05:17:04;;;;;;;5.10;2.15;;;5.30;99.90;;;;;;5003020;28;20370;-82
2023/11/22 05:19:33;;;;;;;5.57;2.58;;;2.00;99.90;;;;;;4989652;28;20026;-81
2023/11/22 05:22:07;;;;;;;5.78;2.47;;;;;;;;;;5004185;28;20072;-83
2023/11/22 05:24:40;;;;;;;3.42;2.22;;;5.30;99.90;;;;;;5009159;28;20465;-82
2023/11/22 05:27:10;;;;;;;4.53;2.60;;;5.30;99.90;;;;;;5005609;28;20405;-81
2023/11/22 05:29:45;;;;;;;5.53;2.70;;;;;;;;;;4995402;28;20034;-81
2023/11/22 05:32:14;;;;;;;7.60;2.42;;;5.30;99.90;;;;;;5012912;28;20513;-81
2023/11/22 05:34:40;;;;;;;6.30;2.88;;;;;;;;;;5002066;28;20026;-81
2023/11/22 05:37:08;;;;;;;4.00;2.75;;;;;;;;;;4998086;28;20102;-82
2023/11/22 05:39:36;;;;;;;6.45;3.58;;;;;;;;;;5002777;28;20046;-82
2023/11/22 05:42:04;;;;;;;5.47;2.40;;;5.30;99.90;;;;;;5079812;23;20108;-81
2023/11/22 05:44:32;;;;;;;4.80;2.42;;;;;;;;;;5011745;28;21494;-82
2023/11/22 05:47:13;;;;;;;4.32;2.35;;;5.40;99.90;;;;;;4997383;28;20561;-83
2023/11/22 05:49:40;;;;;;;5.45;2.50;;;;;;;;;;5001575;28;20043;-83
2023/11/22 05:52:08;;;;;;;5.57;2.38;;;9.80;99.90;;;;;;5002480;28;20116;-81
2023/11/22 05:54:36;;;;;;;4.35;2.40;;;5.30;99.90;;;;;;5034604;28;20067;-81
2023/11/22 05:57:04;;;;;;;4.63;2.67;;;2.50;99.90;;;;;;5013209;28;20045;-82
2023/11/22 05:59:35;;;;;;;6.00;3.08;;;5.20;99.90;;;;;;5024127;28;20058;-82
2023/11/22 06:04:38;;;;;;;3.60;2.20;;;7.30;99.90;;;;;;5406234;23;20052;-81
2023/11/22 06:07:08;;;;;;;4.65;2.65;;;5.20;99.90;;;;;;5008477;28;20069;-82
2023/11/22 06:09:44;;;;;;;5.20;2.50;;;6.20;99.90;;;;;;4984924;28;20112;-81
2023/11/22 06:12:20;;;;;;;4.50;2.47;;;5.10;99.90;;;;;;4988138;28;20049;-81
2023/11/22 06:14:47;;;;;;;5.22;2.50;;;;;;;;;;4961147;28;20026;-82
2023/11/22 06:17:15;;;;;;;6.40;2.83;;;8.90;99.90;;;;;;4976914;28;20162;-81
2023/11/22 06:19:44;;;;;;;9.43;2.83;;;;;;;;;;4997062;28;20038;-84
2023/11/22 06:22:10;;;;;;;6.22;3.10;;;;;;;;;;4972484;28;20061;-81
2023/11/22 06:24:41;;;;;;;6.82;2.80;;;5.00;99.90;;;;;;4975430;28;20380;-82
2023/11/22 06:27:17;;;;;;;5.20;2.95;;;5.00;99.90;;;;;;4996511;28;20035;-81
2023/11/22 06:29:44;;;;;;;4.50;3.22;;;;;;;;;;4959849;28;20034;-82
2023/11/22 06:32:15;;;;;;;6.65;3.45;;;5.00;99.90;;;;;;4997191;28;20110;-81
2023/11/22 06:34:42;;;;;;;6.03;3.08;;;;;;;;;;4981206;28;20480;-82
2023/11/22 06:37:12;;;;;;;6.05;3.00;;;4.90;99.90;;;;;;4981640;28;20027;-81
2023/11/22 06:39:47;;;;;;;5.68;3.20;;;4.90;99.90;;;;;;5007531;28;20046;-81
2023/11/22 06:45:00;;;;;;;4.90;2.97;;;;;;;;;;4982642;28;20029;-83
2023/11/22 06:47:28;;;;;;;5.35;3.05;;;;;;;;;;4999982;28;20396;-80
2023/11/22 06:49:54;;;;;;;7.35;3.13;;;;;;;;;;4990848;23;20110;-84
2023/11/22 07:12:43;;;;;;;;;;;4.60;99.90;;;;;;4934303;29;20043;-85
2023/11/22 07:42:10;;;;;;;6.03;3.55;;;4.30;99.90;;;;;;4821120;29;19954;-84
2023/11/22 07:45:20;;;;;;;7.20;3.35;;;4.30;99.90;;;;;;4902034;28;20108;-85
2023/11/22 07:48:18;;;;;;;8.57;3.72;;;4.40;99.90;;;;;;4978242;28;20338;-84
2023/11/22 07:50:45;;;;;;;6.93;3.60;;;4.40;99.90;;;;;;4985167;28;20031;-85
2023/11/22 07:53:14;;;;;;;4.93;3.00;;;;;;;;;;4973765;28;20030;-87
2023/11/22 07:55:41;;;;;;;6.07;3.28;;;4.40;99.90;;;;;;4978295;28;20023;-88
2023/11/22 07:58:08;;;;;;;7.00;3.22;;;7.70;99.90;;;;;;4962909;28;20023;-86
2023/11/22 08:00:34;;;;;;;6.25;2.60;;;7.00;99.90;;;;;;4981008;28;20090;-88
2023/11/22 08:03:02;;;;;;;7.72;2.88;;;5.10;99.90;;;;;;4966846;28;20027;-88
2023/11/22 08:05:31;;;;;;;4.90;2.97;;;;;;;;;;4982199;28;20505;-85
2023/11/22 08:08:01;;;;;;;5.90;2.60;;;4.50;99.90;;;;;;4998613;28;20041;-85
2023/11/22 08:10:27;;;;;;;4.35;2.95;;;;;;;;;;4982261;28;20026;-87
2023/11/22 08:12:53;;;;;;;6.03;3.10;;;;;;;;;;4960400;28;20035;-85
2023/11/22 08:15:20;;;;;;;5.82;2.78;;;;;;;;;;4996693;28;20042;-86
2023/11/22 08:17:46;;;;;;;4.32;2.58;;;;;;;;;;5004638;28;20108;-86
2023/11/22 08:20:13;;;;;;;6.20;3.03;;;4.70;99.90;;;;;;4999728;28;20019;-86
2023/11/22 08:22:42;;;;;;;6.85;2.88;;;4.70;99.90;;;;;;4999086;28;20057;-88
2023/11/22 08:25:09;;;;;;;4.38;2.80;;;5.90;99.90;;;;;;4981382;28;20019;-86
2023/11/22 08:27:35;;;;;;;5.40;2.88;;;;;;;;;;4980732;28;20027;-87
2023/11/22 08:30:04;;;;;;;5.63;3.15;;;4.80;99.90;;;;;;4998964;28;20041;-87
2023/11/22 08:32:31;;;;;;;3.92;2.38;;;;;;;;;;5007835;28;20031;-88
2023/11/22 08:34:57;;;;;;;4.38;2.78;;;;;;;;;;4999915;28;20039;-87
2023/11/22 08:37:23;;;;;;;4.68;2.70;;;;;;;;;;4997325;28;20045;-86
2023/11/22 08:39:49;;;;;;;5.13;2.88;;;5.10;99.90;;;;;;4993182;28;20078;-87
2023/11/22 08:42:15;;;;;;;5.28;3.22;;;6.80;99.90;;;;;;5000591;28;20018;-87
2023/11/22 08:44:41;;;;;;;5.90;2.83;;;5.90;99.90;;;;;;4987551;28;20013;-89
2023/11/22 08:47:08;;;;;;;4.75;2.97;;;5.20;99.90;;;;;;5012236;28;20017;-86
2023/11/22 08:49:34;;;;;;;6.45;2.70;;;5.20;99.90;;;;;;4982975;28;20046;-88
2023/11/22 08:52:02;;;;;;;5.93;2.90;;;4.70;99.90;;;;;;4996340;28;20034;-87
2023/11/22 08:54:29;;;;;;;5.18;2.50;;;;;;;;;;4996494;28;20006;-86
2023/11/22 08:56:58;;;;;;;4.40;2.67;;;5.30;99.90;;;;;;4994863;28;20504;-87
2023/11/22 08:59:24;;;;;;;5.40;2.63;;;7.90;99.90;;;;;;4995580;28;20014;-88
2023/11/22 09:01:49;;;;;;;3.08;1.95;;;6.40;99.90;;;;;;4961418;28;20043;-90
2023/11/22 09:04:15;;;;;;;8.43;2.35;;;5.40;99.90;;;;;;4978750;28;20037;-88
2023/11/22 09:06:42;;;;;;;7.20;2.30;;;;;;;;;;4976456;28;20112;-86
2023/11/22 09:09:09;;;;;;;6.15;1.88;;;5.60;99.90;;;;;;4997448;28;20026;-85
2023/11/22 09:11:34;;;;;;;4.88;1.90;;;8.30;99.90;;;;;;4988132;28;20035;-85
2023/11/22 09:14:04;;;;;;;3.78;2.00;;;5.40;99.90;;;;;;4996770;28;20030;-87
2023/11/22 09:16:38;;;;;;;3.50;1.98;;;5.60;99.90;;;;;;4997407;28;20015;-87
2023/11/22 09:19:06;;;;;;;5.60;2.08;;;5.60;99.90;;;;;;4966618;28;20053;-86
2023/11/22 09:21:32;;;;;;;16.35;3.60;;;5.60;99.90;;;;;;4989467;28;20023;-88
2023/11/22 09:23:58;;;;;;;4.78;1.85;;;6.40;99.90;;;;;;4987365;28;20034;-84
2023/11/22 09:26:25;;;;;;;5.40;2.25;;;8.00;99.90;;;;;;4975203;28;20046;-86
2023/11/22 09:28:51;;;;;;;3.20;1.70;;;5.60;99.90;;;;;;4997119;28;20169;-89
2023/11/22 13:13:34;;;;;;;2.05;1.30;;;6.60;99.90;;;;;;5661685;23;20037;-80
2023/11/22 13:16:36;;;;;;;2.80;1.40;;;9.20;99.90;;;;;;5017894;28;20516;-81
2023/11/22 13:23:09;;;;;;;2.60;1.52;;;6.20;99.90;;;;;;4932082;29;20067;-83
2023/11/22 13:39:57;;;;;;;2.85;1.20;;;5.10;99.90;;;;;;4907360;29;20064;-82
2023/11/22 13:46:21;;;;;;;4.15;1.73;;;6.50;99.90;;;;;;4967783;28;20066;-82
2023/11/22 13:52:52;;;;;;;2.95;1.40;;;6.60;99.90;;;;;;4920864;29;20031;-81
2023/11/22 14:09:27;;;;;;;4.55;1.88;;;6.40;99.90;;;;;;4900972;29;20074;-81
2023/11/22 14:16:15;;;;;;;31.65;10.23;;;6.30;99.90;;;;;;4883176;29;20107;-81
2023/11/22 14:43:09;;;;;;;5.88;1.63;;;6.20;99.90;;;;;;4869731;29;20036;-81
